Time;durP1;ratioP1;P1;durP2;ratioP2;P2;SDS_P1;SDS_P2;PMS_P1;PMS_P2;Temp;Humidity;BMP_temperature;BMP_pressure;BME280_temperature;BME280_humidity;BME280_pressure;Samples;Min_cycle;Max_cycle;Signal;HPM_P1;HPM_P2
2021/01/21 00:00:45;;;;;;;8.27;2.90;;;10.90;99.90;;;;;;5033515;28;20191;-80
2021/01/21 00:03:11;;;;;;;7.00;3.40;;;10.90;99.90;;;;;;5036022;28;20675;-82
2021/01/21 00:05:38;;;;;;;6.20;3.10;;;10.90;99.90;;;;;;5037419;28;20048;-83
2021/01/21 00:08:04;;;;;;;6.43;3.03;;;11.00;99.90;;;;;;5040916;28;20087;-80
2021/01/21 00:10:31;;;;;;;6.28;3.00;;;11.00;99.90;;;;;;5034267;28;20702;-79
2021/01/21 00:12:57;;;;;;;7.82;3.10;;;10.90;99.90;;;;;;5028307;28;20054;-79
2021/01/21 00:15:23;;;;;;;6.10;3.33;;;10.90;99.90;;;;;;5030027;28;20133;-79
2021/01/21 00:17:51;;;;;;;7.10;3.03;;;10.90;99.90;;;;;;5031225;28;20096;-79
2021/01/21 00:20:17;;;;;;;9.60;3.65;;;10.90;99.90;;;;;;5029233;28;20563;-79
2021/01/21 00:22:44;;;;;;;7.72;3.50;;;10.90;99.90;;;;;;5031169;28;20567;-78
2021/01/21 00:25:11;;;;;;;5.18;3.28;;;10.90;99.90;;;;;;5034012;28;20049;-79
2021/01/21 00:27:37;;;;;;;5.45;3.30;;;10.90;99.90;;;;;;5032761;28;20107;-79
2021/01/21 00:30:07;;;;;;;5.70;3.17;;;10.90;99.90;;;;;;5035900;28;20164;-80
2021/01/21 00:32:33;;;;;;;11.98;3.20;;;10.90;99.90;;;;;;5037247;28;20136;-78
2021/01/21 00:35:00;;;;;;;6.20;3.20;;;11.00;99.90;;;;;;5035059;28;20524;-79
2021/01/21 00:37:27;;;;;;;4.95;3.10;;;11.00;99.90;;;;;;5033730;28;20131;-79
2021/01/21 00:39:53;;;;;;;4.68;3.10;;;11.00;99.90;;;;;;5034770;28;20267;-80
2021/01/21 00:42:20;;;;;;;4.35;2.78;;;10.90;99.90;;;;;;5035305;28;20497;-80
2021/01/21 00:44:46;;;;;;;6.68;3.10;;;10.90;99.90;;;;;;5038149;28;20057;-81
2021/01/21 00:47:13;;;;;;;5.28;2.75;;;11.00;99.90;;;;;;5042622;28;20085;-82
2021/01/21 00:49:39;;;;;;;4.88;2.80;;;10.90;99.90;;;;;;5042685;28;20091;-82
2021/01/21 00:52:06;;;;;;;6.75;3.20;;;11.00;99.90;;;;;;5039660;28;20099;-81
2021/01/21 00:54:34;;;;;;;5.28;2.85;;;11.00;99.90;;;;;;5040477;28;20108;-81
2021/01/21 00:57:00;;;;;;;5.85;2.80;;;11.00;99.90;;;;;;5031111;28;20092;-80
2021/01/21 00:59:27;;;;;;;7.32;3.15;;;11.00;99.90;;;;;;5024268;28;20129;-82
2021/01/21 01:01:53;;;;;;;9.60;3.15;;;11.00;99.90;;;;;;5024586;28;20220;-84
2021/01/21 01:04:19;;;;;;;6.32;2.95;;;11.00;99.90;;;;;;5022174;28;20566;-84
2021/01/21 01:06:46;;;;;;;3.55;2.80;;;11.00;99.90;;;;;;5021645;28;20128;-84
2021/01/21 01:09:13;;;;;;;7.47;3.40;;;11.10;99.90;;;;;;5020318;28;20584;-83
2021/01/21 01:11:40;;;;;;;6.05;3.08;;;11.10;99.90;;;;;;5021626;28;20089;-83
2021/01/21 01:14:06;;;;;;;6.22;2.85;;;11.00;99.90;;;;;;5022471;28;20081;-83
2021/01/21 01:16:33;;;;;;;6.60;3.20;;;11.00;99.90;;;;;;5023011;28;20061;-83
2021/01/21 01:18:59;;;;;;;4.80;2.60;;;11.10;99.90;;;;;;5022185;28;20078;-83
2021/01/21 01:21:25;;;;;;;4.13;2.65;;;11.00;99.90;;;;;;5023146;28;20104;-82
2021/01/21 01:23:52;;;;;;;6.57;3.08;;;11.10;99.90;;;;;;5022069;28;20050;-82
2021/01/21 01:26:20;;;;;;;7.07;2.65;;;11.10;99.90;;;;;;5018149;28;20103;-82
2021/01/21 01:28:47;;;;;;;6.32;2.80;;;11.10;99.90;;;;;;5019908;28;20061;-82
2021/01/21 01:31:13;;;;;;;4.05;2.42;;;11.10;99.90;;;;;;5021326;28;20085;-82
2021/01/21 01:33:40;;;;;;;6.70;2.47;;;11.10;99.90;;;;;;5020902;28;20066;-82
2021/01/21 01:36:07;;;;;;;3.92;2.60;;;11.10;99.90;;;;;;5020023;28;20061;-84
2021/01/21 01:38:34;;;;;;;5.03;2.78;;;11.00;99.90;;;;;;5021922;28;20046;-82
2021/01/21 01:41:00;;;;;;;11.10;2.40;;;11.00;99.90;;;;;;5021511;28;20502;-82
2021/01/21 01:43:27;;;;;;;4.13;2.42;;;11.00;99.90;;;;;;5018207;28;20128;-82
2021/01/21 01:45:54;;;;;;;4.90;2.90;;;11.00;99.90;;;;;;5021255;28;20085;-81
2021/01/21 01:48:21;;;;;;;4.40;2.97;;;11.00;99.90;;;;;;5021734;28;20084;-82
2021/01/21 01:50:48;;;;;;;6.30;3.03;;;11.00;99.90;;;;;;5021407;28;20532;-82
2021/01/21 01:53:14;;;;;;;3.75;2.38;;;11.00;99.90;;;;;;5021759;28;20108;-82
2021/01/21 01:55:41;;;;;;;6.90;3.00;;;10.90;99.90;;;;;;5021778;28;20130;-81
2021/01/21 01:58:09;;;;;;;4.90;3.05;;;10.90;99.90;;;;;;5020582;28;20310;-80
2021/01/21 02:00:37;;;;;;;6.50;2.95;;;11.00;99.90;;;;;;5018730;28;20445;-81
2021/01/21 02:03:03;;;;;;;5.70;2.95;;;11.10;99.90;;;;;;5020799;28;20085;-82
2021/01/21 02:05:30;;;;;;;4.90;2.78;;;11.10;99.90;;;;;;5020653;28;20113;-82
2021/01/21 02:07:56;;;;;;;5.50;3.38;;;11.10;99.90;;;;;;5021353;28;20081;-82
2021/01/21 02:10:23;;;;;;;3.78;2.63;;;11.20;99.90;;;;;;5021580;28;20088;-82
2021/01/21 02:13:25;;;;;;;4.38;2.63;;;11.20;99.90;;;;;;5020888;28;20114;-81
2021/01/21 02:16:00;;;;;;;5.80;3.00;;;11.30;99.90;;;;;;5018960;28;20128;-82
2021/01/21 02:18:31;;;;;;;8.55;2.90;;;11.30;99.90;;;;;;5022282;28;20054;-82
2021/01/21 02:21:39;;;;;;;3.35;2.45;;;11.40;99.90;;;;;;5021668;28;20042;-82
2021/01/21 02:24:40;;;;;;;4.78;2.50;;;11.40;99.90;;;;;;5021459;28;20077;-82
2021/01/21 02:27:07;;;;;;;4.50;2.67;;;11.50;99.90;;;;;;5026826;28;20050;-82
2021/01/21 02:29:35;;;;;;;4.60;2.80;;;11.50;99.90;;;;;;5030267;28;20096;-82
2021/01/21 02:32:50;;;;;;;6.65;2.70;;;11.60;99.90;;;;;;5019693;28;20137;-81
2021/01/21 02:35:18;;;;;;;4.32;2.75;;;11.60;99.90;;;;;;5021099;28;20133;-83
2021/01/21 02:37:52;;;;;;;9.32;3.05;;;11.60;99.90;;;;;;5021943;28;20112;-83
2021/01/21 02:40:20;;;;;;;6.13;2.80;;;11.60;99.90;;;;;;5021361;28;20052;-83
2021/01/21 02:42:48;;;;;;;3.88;2.90;;;11.50;99.90;;;;;;5021554;28;20092;-82
2021/01/21 02:45:15;;;;;;;6.13;3.00;;;11.50;99.90;;;;;;5026979;28;20092;-80
2021/01/21 02:47:42;;;;;;;8.40;2.97;;;11.40;99.90;;;;;;5023245;28;20481;-81
2021/01/21 02:50:10;;;;;;;4.43;2.78;;;11.40;99.90;;;;;;5019360;28;20045;-83
2021/01/21 02:52:41;;;;;;;4.18;2.80;;;11.40;99.90;;;;;;5019711;28;20061;-81
2021/01/21 02:55:22;;;;;;;5.32;2.90;;;11.40;99.90;;;;;;5018898;28;20477;-81
2021/01/21 02:57:55;;;;;;;8.85;3.20;;;11.40;99.90;;;;;;5018814;28;20109;-81
2021/01/21 03:00:23;;;;;;;6.18;3.13;;;11.50;99.90;;;;;;5019277;28;20104;-82
2021/01/21 03:02:51;;;;;;;6.75;3.10;;;11.50;99.90;;;;;;5020366;28;20132;-82
2021/01/21 03:05:19;;;;;;;7.80;3.58;;;11.50;99.90;;;;;;5019685;28;20481;-83
2021/01/21 03:07:48;;;;;;;7.40;3.63;;;11.50;99.90;;;;;;5019801;28;20050;-83
2021/01/21 03:10:18;;;;;;;5.25;2.85;;;11.50;99.90;;;;;;5018965;28;20077;-81
2021/01/21 03:12:50;;;;;;;8.38;2.85;;;11.50;99.90;;;;;;5018389;28;20082;-81
2021/01/21 03:15:17;;;;;;;5.03;2.60;;;11.50;99.90;;;;;;5018568;28;20554;-81
2021/01/21 03:17:43;;;;;;;5.75;3.65;;;11.50;99.90;;;;;;5017276;28;20049;-82
2021/01/21 03:20:11;;;;;;;3.85;1.90;;;11.50;99.90;;;;;;5017556;28;20506;-82
2021/01/21 03:22:37;;;;;;;8.43;4.63;;;11.60;99.90;;;;;;5018333;28;20050;-82
2021/01/21 03:25:06;;;;;;;5.93;3.00;;;11.60;99.90;;;;;;5020092;28;20093;-82
2021/01/21 03:27:32;;;;;;;7.18;3.20;;;11.60;99.90;;;;;;5019468;28;20082;-82
2021/01/21 03:29:59;;;;;;;9.35;2.75;;;11.60;99.90;;;;;;5019929;28;20121;-83
2021/01/21 03:32:25;;;;;;;4.38;2.30;;;11.60;99.90;;;;;;5023081;28;20054;-84
2021/01/21 03:34:51;;;;;;;7.85;2.67;;;11.70;99.90;;;;;;5019423;28;20509;-83
2021/01/21 03:37:18;;;;;;;4.13;2.28;;;11.70;99.90;;;;;;5018555;28;20054;-81
2021/01/21 03:39:44;;;;;;;8.40;2.83;;;11.80;99.90;;;;;;5016586;28;20129;-83
2021/01/21 03:42:11;;;;;;;9.00;2.90;;;11.80;99.90;;;;;;5018401;28;20561;-82
2021/01/21 03:44:38;;;;;;;5.32;2.53;;;11.80;99.90;;;;;;5017529;28;20045;-83
2021/01/21 03:47:04;;;;;;;6.88;2.40;;;11.80;99.90;;;;;;5018759;28;20093;-82
2021/01/21 03:49:33;;;;;;;8.48;2.60;;;11.80;99.90;;;;;;5020913;28;20050;-82
2021/01/21 03:51:59;;;;;;;7.82;2.60;;;11.80;99.90;;;;;;5018236;28;20129;-81
2021/01/21 03:54:26;;;;;;;9.10;2.45;;;11.80;99.90;;;;;;5018031;28;20081;-81
2021/01/21 03:56:52;;;;;;;6.40;2.72;;;11.80;99.90;;;;;;5016282;28;20078;-80
2021/01/21 03:59:20;;;;;;;4.35;2.40;;;11.80;99.90;;;;;;5016858;28;20046;-82
2021/01/21 04:01:46;;;;;;;4.90;2.20;;;11.80;99.90;;;;;;5016988;28;20085;-80
2021/01/21 04:04:12;;;;;;;2.65;1.88;;;11.90;99.90;;;;;;5018770;28;20381;-80
2021/01/21 04:06:39;;;;;;;3.22;1.95;;;11.80;99.90;;;;;;5018782;28;20136;-83
2021/01/21 04:09:06;;;;;;;3.55;2.08;;;11.80;99.90;;;;;;5019733;28;20053;-80
2021/01/21 04:11:32;;;;;;;3.40;2.00;;;11.80;99.90;;;;;;5019213;28;20054;-80
2021/01/21 04:13:59;;;;;;;1.88;1.73;;;11.80;99.90;;;;;;5019288;28;20090;-80
2021/01/21 04:16:26;;;;;;;3.08;1.98;;;11.70;99.90;;;;;;5018851;28;20106;-79
2021/01/21 04:18:52;;;;;;;2.97;2.03;;;11.70;99.90;;;;;;5018946;28;20133;-80
2021/01/21 04:21:19;;;;;;;6.93;2.00;;;11.60;99.90;;;;;;5021890;28;20052;-79
2021/01/21 04:23:45;;;;;;;7.18;1.88;;;11.60;99.90;;;;;;5031215;28;20494;-80
2021/01/21 04:26:11;;;;;;;2.65;1.63;;;11.60;99.90;;;;;;5028531;28;20057;-79
2021/01/21 04:28:38;;;;;;;2.78;1.85;;;11.50;99.90;;;;;;5026893;28;20050;-78
2021/01/21 04:31:04;;;;;;;3.83;2.00;;;11.50;99.90;;;;;;5024120;28;20085;-81
2021/01/21 04:33:31;;;;;;;3.25;1.50;;;11.50;99.90;;;;;;5021762;28;20077;-82
2021/01/21 04:35:58;;;;;;;3.33;1.77;;;11.50;99.90;;;;;;5023379;28;20136;-82
2021/01/21 04:38:24;;;;;;;2.72;2.20;;;11.50;99.90;;;;;;5023027;28;20114;-81
2021/01/21 04:40:50;;;;;;;4.68;2.08;;;11.50;99.90;;;;;;5023086;28;20519;-81
2021/01/21 04:43:17;;;;;;;3.30;2.17;;;11.50;99.90;;;;;;5023130;28;20089;-80
2021/01/21 04:45:43;;;;;;;3.25;1.77;;;11.50;99.90;;;;;;5021341;28;20058;-84
2021/01/21 04:48:10;;;;;;;4.75;2.00;;;11.50;99.90;;;;;;5023608;28;20096;-82
2021/01/21 04:50:39;;;;;;;2.58;1.80;;;11.50;99.90;;;;;;5026731;28;20076;-80
2021/01/21 04:53:07;;;;;;;2.55;1.60;;;11.50;99.90;;;;;;5022000;28;20509;-81
2021/01/21 04:55:36;;;;;;;2.92;1.77;;;11.50;99.90;;;;;;5020726;28;20133;-79
2021/01/21 04:58:08;;;;;;;2.95;1.98;;;11.50;99.90;;;;;;5023240;28;20053;-81
2021/01/21 05:00:37;;;;;;;6.57;1.92;;;11.50;99.90;;;;;;5020908;28;20096;-81
2021/01/21 05:03:04;;;;;;;3.25;1.98;;;11.50;99.90;;;;;;5020543;28;20101;-80
2021/01/21 05:05:30;;;;;;;2.85;1.70;;;11.50;99.90;;;;;;5021736;28;20045;-81
2021/01/21 05:07:58;;;;;;;4.05;2.13;;;11.50;99.90;;;;;;5026085;28;20089;-81
2021/01/21 05:10:24;;;;;;;4.07;1.83;;;11.50;99.90;;;;;;5021909;28;20096;-81
2021/01/21 05:12:51;;;;;;;2.88;2.17;;;11.50;99.90;;;;;;5021744;28;20132;-85
2021/01/21 05:15:17;;;;;;;7.72;2.00;;;11.50;99.90;;;;;;5022016;28;20097;-82
2021/01/21 05:17:44;;;;;;;4.18;2.00;;;11.50;99.90;;;;;;5022000;28;20077;-80
2021/01/21 05:20:11;;;;;;;4.53;2.00;;;11.40;99.90;;;;;;5022288;28;20054;-82
2021/01/21 05:22:38;;;;;;;3.20;2.17;;;11.40;99.90;;;;;;5022564;28;20049;-81
2021/01/21 05:25:07;;;;;;;4.35;2.17;;;11.40;99.90;;;;;;5022584;28;20184;-81
2021/01/21 05:27:34;;;;;;;2.55;2.13;;;11.40;99.90;;;;;;5022358;28;20073;-82
2021/01/21 05:30:02;;;;;;;19.60;2.50;;;11.40;99.90;;;;;;5019319;28;20050;-79
2021/01/21 05:32:28;;;;;;;5.50;1.83;;;11.00;99.90;;;;;;5016774;28;20438;-80
2021/01/21 05:34:54;;;;;;;10.43;2.25;;;8.90;99.90;;;;;;5016592;28;20080;-80
2021/01/21 05:37:21;;;;;;;4.18;1.60;;;7.10;99.90;;;;;;5017663;28;20081;-80
2021/01/21 05:39:48;;;;;;;6.60;2.88;;;6.30;99.90;;;;;;5016667;28;20049;-80
2021/01/21 05:42:17;;;;;;;5.65;1.70;;;6.10;99.90;;;;;;5017972;28;20081;-81
2021/01/21 05:44:45;;;;;;;2.45;1.48;;;5.90;99.90;;;;;;5034797;22;20137;-79
2021/01/21 05:47:12;;;;;;;4.93;1.48;;;5.80;99.90;;;;;;5031314;28;20046;-80
2021/01/21 05:49:39;;;;;;;4.93;1.50;;;5.80;99.90;;;;;;5041326;28;20049;-80
2021/01/21 05:52:05;;;;;;;3.45;1.33;;;5.80;99.90;;;;;;5042003;28;20080;-81
2021/01/21 05:54:32;;;;;;;3.08;1.67;;;5.80;99.90;;;;;;5039844;28;20136;-80
2021/01/21 05:57:01;;;;;;;1.95;0.95;;;5.80;99.90;;;;;;5042860;28;20049;-81
2021/01/21 05:59:29;;;;;;;4.90;1.58;;;5.80;99.90;;;;;;5051288;28;20252;-81
2021/01/21 06:01:56;;;;;;;4.00;1.42;;;5.80;99.90;;;;;;5052541;28;20045;-81
2021/01/21 06:04:26;;;;;;;6.85;1.73;;;5.80;99.90;;;;;;5053657;28;20060;-80
2021/01/21 06:06:53;;;;;;;4.10;1.77;;;5.90;99.90;;;;;;5050188;28;20053;-81
2021/01/21 06:09:25;;;;;;;3.83;2.28;;;5.90;99.90;;;;;;5045195;28;20425;-82
2021/01/21 06:11:52;;;;;;;5.45;2.15;;;5.90;99.90;;;;;;5044825;28;20049;-81
2021/01/21 06:14:23;;;;;;;2.83;1.85;;;5.90;99.90;;;;;;5043687;28;20075;-81
2021/01/21 06:16:51;;;;;;;4.88;1.50;;;5.90;99.90;;;;;;5043389;28;20136;-82
2021/01/21 06:19:17;;;;;;;3.70;1.83;;;5.90;99.90;;;;;;5043121;28;20045;-79
2021/01/21 06:21:48;;;;;;;7.90;1.50;;;5.90;99.90;;;;;;5042125;28;20517;-81
2021/01/21 06:24:16;;;;;;;4.40;1.70;;;5.90;99.90;;;;;;5042870;28;20426;-81
2021/01/21 06:26:46;;;;;;;4.22;1.27;;;6.00;99.90;;;;;;5041641;28;20128;-81
2021/01/21 06:29:18;;;;;;;2.53;1.55;;;6.00;99.90;;;;;;5042598;28;20045;-84
2021/01/21 06:31:48;;;;;;;2.83;1.85;;;6.00;99.90;;;;;;5039043;28;20050;-80
2021/01/21 06:34:19;;;;;;;4.05;1.42;;;6.00;99.90;;;;;;5040906;28;20049;-80
2021/01/21 06:36:51;;;;;;;4.82;1.65;;;6.00;99.90;;;;;;5039138;28;20088;-81
2021/01/21 06:39:49;;;;;;;5.63;2.03;;;6.10;99.90;;;;;;5038614;28;20510;-79
2021/01/21 06:42:21;;;;;;;7.20;2.08;;;6.10;99.90;;;;;;5038786;28;20053;-78
2021/01/21 06:44:52;;;;;;;8.45;2.53;;;6.10;99.90;;;;;;5020895;28;20069;-80
2021/01/21 06:47:19;;;;;;;7.55;2.60;;;6.10;99.90;;;;;;5020958;28;20058;-79
2021/01/21 06:49:47;;;;;;;7.80;2.28;;;6.20;99.90;;;;;;5031471;28;20045;-80
2021/01/21 06:52:14;;;;;;;7.57;2.08;;;6.20;99.90;;;;;;5038900;28;20076;-79
2021/01/21 06:54:41;;;;;;;8.02;2.58;;;6.30;99.90;;;;;;5037743;28;20080;-79
2021/01/21 06:57:41;;;;;;;7.40;2.58;;;6.30;99.90;;;;;;5036362;28;20552;-78
2021/01/21 07:00:09;;;;;;;9.32;2.72;;;6.40;99.90;;;;;;5034450;28;20080;-79
2021/01/21 07:02:46;;;;;;;5.63;2.70;;;6.50;99.90;;;;;;5035400;28;20077;-79
2021/01/21 07:05:16;;;;;;;4.05;2.38;;;6.50;99.90;;;;;;5035144;28;20084;-79
2021/01/21 07:08:05;;;;;;;2.97;1.83;;;6.60;99.90;;;;;;5038188;28;20049;-80
2021/01/21 07:10:39;;;;;;;2.47;1.55;;;6.60;99.90;;;;;;5039237;28;20048;-80
2021/01/21 07:13:07;;;;;;;9.65;2.25;;;6.60;99.90;;;;;;5039402;28;20053;-80
2021/01/21 07:15:42;;;;;;;4.25;1.45;;;6.60;99.90;;;;;;5038029;28;20050;-78
2021/01/21 07:18:15;;;;;;;3.53;1.92;;;6.60;99.90;;;;;;5038121;28;20077;-80
2021/01/21 07:21:16;;;;;;;4.47;2.53;;;6.50;99.90;;;;;;5037615;28;20464;-79
2021/01/21 07:23:44;;;;;;;4.93;2.05;;;6.60;99.90;;;;;;5038083;28;20109;-80
2021/01/21 07:26:36;;;;;;;5.95;2.50;;;6.60;99.90;;;;;;5037882;28;20068;-80
2021/01/21 07:29:08;;;;;;;4.80;1.75;;;6.60;99.90;;;;;;5038712;28;20136;-79
2021/01/21 07:32:13;;;;;;;3.20;2.28;;;6.60;99.90;;;;;;5037476;28;20092;-79
2021/01/21 07:34:42;;;;;;;3.00;2.58;;;6.60;99.90;;;;;;5030505;28;20505;-79
2021/01/21 07:37:29;;;;;;;4.28;2.85;;;6.60;99.90;;;;;;5036947;28;20049;-80
2021/01/21 07:39:58;;;;;;;3.00;1.77;;;6.60;99.90;;;;;;5040678;28;20101;-79
2021/01/21 07:42:51;;;;;;;3.65;1.98;;;6.70;99.90;;;;;;5039945;28;20133;-79
2021/01/21 07:45:25;;;;;;;;;;;6.70;99.90;;;;;;5040167;28;20073;-79
2021/01/21 07:47:51;;;;;;;;;;;6.70;99.90;;;;;;5041930;28;20274;-79
2021/01/21 07:50:29;;;;;;;3.63;1.30;;;6.70;99.90;;;;;;5041329;28;19921;-80
2021/01/21 07:52:58;;;;;;;4.00;1.70;;;6.70;99.90;;;;;;5041070;28;20056;-79
2021/01/21 07:55:28;;;;;;;6.00;1.98;;;6.70;99.90;;;;;;5039634;28;20096;-80
2021/01/21 07:58:13;;;;;;;5.90;2.25;;;6.60;99.90;;;;;;5039826;28;20072;-79
2021/01/21 08:00:39;;;;;;;4.85;2.40;;;6.70;99.90;;;;;;5042730;28;20087;-84
2021/01/21 08:03:06;;;;;;;6.25;2.45;;;6.70;99.90;;;;;;5050284;28;20079;-84
2021/01/21 08:05:32;;;;;;;6.68;2.38;;;6.70;99.90;;;;;;5049277;28;20135;-85
2021/01/21 08:08:02;;;;;;;4.45;2.25;;;6.70;99.90;;;;;;5049948;28;20041;-83
2021/01/21 08:10:31;;;;;;;10.57;2.08;;;6.70;99.90;;;;;;5039983;28;20056;-84
2021/01/21 08:12:59;;;;;;;6.60;1.90;;;6.70;99.90;;;;;;5036612;28;20057;-84
2021/01/21 08:15:27;;;;;;;3.95;2.55;;;6.70;99.90;;;;;;5034419;28;20057;-85
2021/01/21 08:17:55;;;;;;;5.35;2.35;;;6.60;99.90;;;;;;5040102;28;20225;-85
2021/01/21 08:20:22;;;;;;;8.88;2.47;;;6.60;99.90;;;;;;5036971;28;20042;-83
2021/01/21 08:22:53;;;;;;;7.00;2.38;;;6.60;99.90;;;;;;5030529;28;20093;-84
2021/01/21 08:25:21;;;;;;;5.10;1.83;;;6.60;99.90;;;;;;5029958;28;20058;-83
2021/01/21 08:27:49;;;;;;;8.45;2.42;;;6.60;99.90;;;;;;5026506;28;20057;-83
2021/01/21 08:30:17;;;;;;;11.90;3.05;;;6.60;99.90;;;;;;5029221;28;20042;-84
2021/01/21 08:32:45;;;;;;;10.73;3.15;;;6.60;99.90;;;;;;5028328;28;20691;-83
2021/01/21 08:35:15;;;;;;;5.57;2.95;;;6.60;99.90;;;;;;5028657;28;20066;-84
2021/01/21 08:37:43;;;;;;;9.10;4.57;;;6.50;99.90;;;;;;5027151;28;20061;-83
2021/01/21 08:40:10;;;;;;;6.57;2.70;;;6.50;99.90;;;;;;5028064;28;20058;-84
2021/01/21 08:42:38;;;;;;;13.48;3.08;;;6.50;99.90;;;;;;5024660;28;20057;-85
2021/01/21 08:45:06;;;;;;;10.85;4.03;;;6.60;99.90;;;;;;5024299;28;20054;-85
2021/01/21 08:47:40;;;;;;;8.25;3.30;;;6.60;99.90;;;;;;5025412;28;20054;-85
2021/01/21 08:50:09;;;;;;;6.03;2.70;;;6.60;99.90;;;;;;5025884;28;20077;-84
2021/01/21 08:52:37;;;;;;;5.55;1.90;;;6.70;99.90;;;;;;5026540;28;20129;-85
2021/01/21 08:55:04;;;;;;;6.43;2.33;;;6.70;99.90;;;;;;5027199;28;20053;-83
2021/01/21 08:57:30;;;;;;;5.18;2.15;;;6.80;99.90;;;;;;5026095;28;20049;-83
2021/01/21 09:00:13;;;;;;;7.28;2.30;;;6.80;99.90;;;;;;5026994;28;20042;-83
2021/01/21 09:02:40;;;;;;;6.28;2.83;;;6.80;99.90;;;;;;5026722;28;20109;-82
2021/01/21 09:05:07;;;;;;;10.82;2.47;;;6.90;99.90;;;;;;5026256;28;20049;-83
2021/01/21 09:07:34;;;;;;;8.30;2.13;;;6.90;99.90;;;;;;5026451;28;20042;-83
2021/01/21 09:10:10;;;;;;;7.05;3.03;;;6.90;99.90;;;;;;5035703;28;20030;-84
2021/01/21 09:12:36;;;;;;;7.55;2.20;;;7.00;99.90;;;;;;5036557;28;20041;-84
2021/01/21 09:15:05;;;;;;;8.25;2.55;;;7.00;99.90;;;;;;5028938;28;20077;-82
2021/01/21 09:17:34;;;;;;;8.77;3.45;;;7.10;99.90;;;;;;5027841;28;20129;-82
2021/01/21 09:20:02;;;;;;;6.68;2.80;;;7.10;99.90;;;;;;5027423;28;20114;-83
2021/01/21 09:22:38;;;;;;;8.30;2.78;;;7.10;99.90;;;;;;5026319;28;20056;-81
2021/01/21 09:25:07;;;;;;;5.63;3.28;;;7.20;99.90;;;;;;5024991;28;20077;-82
2021/01/21 09:27:37;;;;;;;7.40;2.15;;;7.20;99.90;;;;;;5024843;28;20103;-83
2021/01/21 09:30:06;;;;;;;10.82;2.55;;;7.20;99.90;;;;;;5024738;28;20465;-82
2021/01/21 09:32:37;;;;;;;5.97;2.10;;;7.20;99.90;;;;;;5024023;28;20080;-83
2021/01/21 09:35:05;;;;;;;4.03;2.28;;;7.30;99.90;;;;;;5022625;28;20050;-84
2021/01/21 09:37:35;;;;;;;11.63;2.35;;;7.40;99.90;;;;;;5021308;28;20088;-85
2021/01/21 09:40:02;;;;;;;10.90;2.70;;;7.40;99.90;;;;;;5022054;28;20080;-85
2021/01/21 09:42:29;;;;;;;6.38;3.03;;;7.50;99.90;;;;;;5022887;28;20123;-84
2021/01/21 09:44:56;;;;;;;6.57;2.25;;;7.50;99.90;;;;;;5021962;28;20061;-83
2021/01/21 09:47:22;;;;;;;8.25;2.50;;;7.50;99.90;;;;;;5021672;28;20045;-85
2021/01/21 09:49:50;;;;;;;7.63;2.65;;;7.50;99.90;;;;;;5022929;28;20069;-84
2021/01/21 09:52:16;;;;;;;10.32;2.20;;;7.60;99.90;;;;;;5023895;28;20065;-83
2021/01/21 09:54:42;;;;;;;7.57;2.45;;;7.60;99.90;;;;;;5021717;28;20111;-85
2021/01/21 09:57:09;;;;;;;8.15;2.63;;;7.60;99.90;;;;;;5021874;28;20510;-84
2021/01/21 09:59:35;;;;;;;6.43;2.70;;;7.70;99.90;;;;;;5024105;28;20046;-84
2021/01/21 10:02:02;;;;;;;7.57;2.72;;;7.80;99.90;;;;;;5023430;28;20069;-84
2021/01/21 10:04:29;;;;;;;8.13;3.38;;;7.80;99.90;;;;;;5020526;28;20103;-83
2021/01/21 10:06:56;;;;;;;7.97;3.30;;;7.80;99.90;;;;;;5021946;28;20065;-82
2021/01/21 10:09:23;;;;;;;10.00;3.10;;;7.90;99.90;;;;;;5021983;28;20056;-83
2021/01/21 10:11:49;;;;;;;8.75;2.45;;;8.00;99.90;;;;;;5023121;28;20057;-83
2021/01/21 10:14:16;;;;;;;10.63;2.83;;;8.00;99.90;;;;;;5025216;28;20046;-83
2021/01/21 10:16:42;;;;;;;6.88;2.45;;;8.00;99.90;;;;;;5022112;28;20129;-83
2021/01/21 10:19:10;;;;;;;8.00;3.13;;;8.10;99.90;;;;;;5020857;28;20088;-84
2021/01/21 10:21:37;;;;;;;10.75;2.80;;;8.20;99.90;;;;;;5020216;28;20046;-83
2021/01/21 10:24:05;;;;;;;13.13;2.88;;;8.30;99.90;;;;;;5022330;28;20148;-82
2021/01/21 10:26:31;;;;;;;5.80;2.50;;;8.30;99.90;;;;;;5021462;28;20053;-83
2021/01/21 10:28:58;;;;;;;10.60;3.58;;;8.40;99.90;;;;;;5021626;28;20061;-83
2021/01/21 10:31:24;;;;;;;12.00;3.53;;;8.40;99.90;;;;;;5021527;28;20084;-85
2021/01/21 10:33:51;;;;;;;8.73;2.97;;;8.40;99.90;;;;;;5021251;28;20073;-84
2021/01/21 10:36:17;;;;;;;9.68;2.90;;;8.50;99.90;;;;;;5021201;28;20042;-82
2021/01/21 10:38:43;;;;;;;6.93;2.72;;;8.50;99.90;;;;;;5021966;28;20077;-82
2021/01/21 10:41:11;;;;;;;9.50;3.35;;;8.50;99.90;;;;;;5020997;28;20053;-83
2021/01/21 10:43:38;;;;;;;6.22;2.63;;;8.50;99.90;;;;;;5024940;28;20052;-82
2021/01/21 10:46:04;;;;;;;9.95;2.53;;;8.50;99.90;;;;;;5024877;28;20053;-82
2021/01/21 10:48:31;;;;;;;6.28;2.22;;;8.50;99.90;;;;;;5026035;28;20060;-83
2021/01/21 10:50:58;;;;;;;7.13;2.72;;;8.50;99.90;;;;;;5027215;28;20560;-83
2021/01/21 10:53:24;;;;;;;6.70;2.53;;;8.50;99.90;;;;;;5029459;28;20537;-81
2021/01/21 10:55:51;;;;;;;6.10;2.60;;;8.40;99.90;;;;;;5028673;28;20081;-81
2021/01/21 10:58:18;;;;;;;8.88;2.35;;;8.50;99.90;;;;;;5029142;28;20080;-84
2021/01/21 11:00:45;;;;;;;3.40;1.80;;;8.40;99.90;;;;;;5029286;28;20057;-83
2021/01/21 11:03:12;;;;;;;6.40;2.45;;;8.50;99.90;;;;;;5029452;28;20050;-83
2021/01/21 11:05:43;;;;;;;6.22;2.70;;;8.50;99.90;;;;;;5028035;28;20068;-84
2021/01/21 11:08:10;;;;;;;6.20;2.40;;;8.50;99.90;;;;;;5024335;28;20046;-83
2021/01/21 11:10:38;;;;;;;6.75;2.63;;;8.50;99.90;;;;;;5027160;28;20057;-86
2021/01/21 11:13:04;;;;;;;4.60;1.70;;;8.50;99.90;;;;;;5028501;28;20048;-82
2021/01/21 11:15:32;;;;;;;4.20;1.98;;;8.50;99.90;;;;;;5031160;28;20050;-85
2021/01/21 11:17:59;;;;;;;5.95;2.30;;;8.50;99.90;;;;;;5032659;28;20108;-84
2021/01/21 11:20:25;;;;;;;4.20;2.13;;;8.60;99.90;;;;;;5032793;28;20050;-83
2021/01/21 11:22:52;;;;;;;5.82;1.73;;;8.70;99.90;;;;;;5031853;28;20057;-82
2021/01/21 11:25:19;;;;;;;7.28;2.22;;;8.80;99.90;;;;;;5031073;28;20113;-83
2021/01/21 11:27:45;;;;;;;5.28;1.60;;;8.80;99.90;;;;;;5030928;28;20049;-83
2021/01/21 11:30:13;;;;;;;4.65;1.85;;;8.90;99.90;;;;;;5030788;28;20050;-83
2021/01/21 11:32:40;;;;;;;5.40;1.52;;;9.00;99.90;;;;;;5031490;28;20081;-83
2021/01/21 11:35:07;;;;;;;5.15;1.48;;;9.10;99.90;;;;;;5029160;28;20045;-82
2021/01/21 11:37:38;;;;;;;4.60;2.97;;;9.00;99.90;;;;;;5030733;28;20050;-80
2021/01/21 11:40:06;;;;;;;4.38;1.38;;;9.00;99.90;;;;;;5029653;28;20046;-80
2021/01/21 11:42:33;;;;;;;6.40;2.20;;;9.00;99.90;;;;;;5032211;28;20042;-86
2021/01/21 11:45:01;;;;;;;4.72;1.48;;;9.10;99.90;;;;;;5057564;22;20076;-79
2021/01/21 11:47:29;;;;;;;6.10;2.13;;;9.10;99.90;;;;;;5042406;28;20037;-80
2021/01/21 11:49:57;;;;;;;3.53;1.92;;;9.20;99.90;;;;;;5036372;28;20077;-78
2021/01/21 11:52:26;;;;;;;4.90;1.75;;;9.30;99.90;;;;;;5030106;28;20072;-82
2021/01/21 11:54:52;;;;;;;5.45;1.70;;;9.40;99.90;;;;;;5041616;28;20088;-80
2021/01/21 11:57:20;;;;;;;7.22;1.92;;;9.40;99.90;;;;;;5046073;28;20469;-81
2021/01/21 11:59:47;;;;;;;4.43;1.63;;;9.40;99.90;;;;;;5042768;28;20065;-80
2021/01/21 12:02:13;;;;;;;6.40;1.85;;;9.40;99.90;;;;;;5042183;28;20128;-80
2021/01/21 12:04:39;;;;;;;4.45;1.65;;;9.40;99.90;;;;;;5041103;28;20410;-80
2021/01/21 12:07:07;;;;;;;3.45;1.90;;;9.40;99.90;;;;;;5042674;28;20088;-81
2021/01/21 12:09:33;;;;;;;6.57;2.10;;;9.40;99.90;;;;;;5040716;28;20065;-80
2021/01/21 12:12:00;;;;;;;6.25;2.05;;;9.50;99.90;;;;;;5047739;28;20056;-80
2021/01/21 12:14:26;;;;;;;5.70;1.73;;;9.50;99.90;;;;;;5049756;28;20111;-81
2021/01/21 12:16:52;;;;;;;5.85;2.03;;;9.50;99.90;;;;;;5044150;28;20045;-80
2021/01/21 12:19:19;;;;;;;5.38;1.77;;;9.60;99.90;;;;;;5046000;28;20041;-80
2021/01/21 12:21:45;;;;;;;5.07;1.40;;;9.70;99.90;;;;;;5044650;28;20075;-79
2021/01/21 12:24:12;;;;;;;5.00;1.85;;;9.70;99.90;;;;;;5035946;28;20087;-80
2021/01/21 12:26:40;;;;;;;5.63;2.42;;;9.70;99.90;;;;;;5045948;28;20189;-82
2021/01/21 12:29:08;;;;;;;2.75;1.55;;;9.80;99.90;;;;;;5050079;28;20066;-83
2021/01/21 12:31:35;;;;;;;6.13;1.92;;;9.80;99.90;;;;;;5045707;28;20046;-79
2021/01/21 12:34:01;;;;;;;4.43;2.00;;;9.90;99.90;;;;;;5040657;28;20084;-80
2021/01/21 12:36:31;;;;;;;3.78;1.80;;;9.90;99.90;;;;;;5045914;28;20061;-80
2021/01/21 12:38:58;;;;;;;6.00;1.70;;;9.90;99.90;;;;;;5043675;28;20077;-80
2021/01/21 12:41:26;;;;;;;6.00;2.20;;;9.90;99.90;;;;;;5043230;28;20073;-79
2021/01/21 12:43:52;;;;;;;7.97;1.95;;;10.00;99.90;;;;;;5042328;28;20084;-80
2021/01/21 12:46:19;;;;;;;7.35;1.88;;;9.80;99.90;;;;;;5041309;28;20080;-79
2021/01/21 12:48:47;;;;;;;5.45;1.67;;;9.80;99.90;;;;;;5043265;28;20049;-80
2021/01/21 12:51:13;;;;;;;4.60;1.80;;;9.80;99.90;;;;;;5041472;28;20052;-79
2021/01/21 12:53:39;;;;;;;6.18;1.80;;;9.80;99.90;;;;;;5061821;28;20057;-80
2021/01/21 12:56:06;;;;;;;3.17;1.90;;;9.90;99.90;;;;;;5062382;28;20049;-80
2021/01/21 12:58:34;;;;;;;3.08;1.55;;;9.80;99.90;;;;;;5063928;28;20091;-79
2021/01/21 13:01:00;;;;;;;3.20;1.67;;;9.80;99.90;;;;;;5059106;28;20049;-79